createdAt,value
2022-09-21T00:01:38.881Z,7.30
2022-09-21T00:04:26.801Z,7.20
2022-09-21T00:07:14.373Z,7.20
2022-09-21T00:10:02.388Z,7.20
2022-09-21T00:12:51.439Z,7.10
2022-09-21T00:15:41.849Z,7.10
2022-09-21T00:18:29.798Z,7.10
2022-09-21T00:21:18.613Z,7.00
2022-09-21T00:24:06.929Z,6.90
2022-09-21T00:26:55.041Z,6.90
2022-09-21T00:29:44.166Z,6.80
2022-09-21T00:32:33.027Z,6.80
2022-09-21T00:35:20.783Z,6.70
2022-09-21T00:38:08.664Z,6.70
2022-09-21T00:40:56.567Z,6.60
2022-09-21T00:43:47.244Z,6.70
2022-09-21T00:46:40.271Z,6.60
2022-09-21T00:49:29.921Z,6.70
2022-09-21T00:52:19.291Z,6.70
2022-09-21T00:55:12.871Z,6.70
2022-09-21T00:58:04.710Z,6.80
2022-09-21T01:00:52.591Z,6.80
2022-09-21T01:03:45.903Z,6.80
2022-09-21T01:06:36.161Z,6.80
2022-09-21T01:09:24.400Z,6.80
2022-09-21T01:12:27.732Z,6.80
2022-09-21T01:15:29.518Z,6.80
2022-09-21T01:18:22.676Z,6.80
2022-09-21T01:21:21.574Z,6.80
2022-09-21T01:24:53.101Z,6.70
2022-09-21T01:27:58.066Z,6.80
2022-09-21T01:30:49.551Z,6.80
2022-09-21T01:33:40.920Z,6.80
2022-09-21T01:36:32.112Z,6.80
2022-09-21T01:39:22.733Z,6.80
2022-09-21T01:42:12.036Z,6.80
2022-09-21T01:45:03.003Z,6.80
2022-09-21T01:47:53.225Z,6.80
2022-09-21T01:50:47.968Z,6.80
2022-09-21T01:53:42.606Z,6.70
2022-09-21T01:56:37.409Z,6.70
2022-09-21T01:59:34.042Z,6.70
2022-09-21T02:02:26.896Z,6.70
2022-09-21T02:05:18.753Z,6.70
2022-09-21T02:08:07.626Z,6.70
2022-09-21T02:10:55.920Z,6.70
2022-09-21T02:13:46.690Z,6.70
2022-09-21T02:16:39.776Z,6.60
2022-09-21T02:19:36.176Z,6.70
2022-09-21T02:22:33.969Z,6.70
2022-09-21T02:25:31.491Z,6.70
2022-09-21T02:28:30.018Z,6.70
2022-09-21T02:31:27.469Z,6.80
2022-09-21T02:34:21.295Z,7.00
2022-09-21T02:37:15.438Z,7.10
2022-09-21T02:40:11.700Z,7.10
2022-09-21T02:43:03.466Z,7.30
2022-09-21T02:45:55.589Z,7.30
2022-09-21T02:48:49.694Z,7.40
2022-09-21T02:51:42.051Z,7.50
2022-09-21T02:54:33.892Z,7.60
2022-09-21T02:57:25.464Z,7.60
2022-09-21T03:00:13.897Z,7.70
2022-09-21T03:03:01.587Z,7.80
2022-09-21T03:05:51.209Z,7.80
2022-09-21T03:08:39.035Z,7.90
2022-09-21T03:11:27.286Z,8.00
2022-09-21T03:14:17.151Z,8.00
2022-09-21T03:17:05.040Z,8.10
2022-09-21T03:19:55.206Z,8.10
2022-09-21T03:22:43.172Z,8.10
2022-09-21T03:25:33.370Z,8.10
2022-09-21T03:28:21.627Z,8.20
2022-09-21T03:31:10.657Z,8.20
2022-09-21T03:33:58.566Z,8.20
2022-09-21T03:36:46.465Z,8.20
2022-09-21T03:39:34.813Z,8.20
2022-09-21T03:42:22.484Z,8.20
2022-09-21T03:45:12.484Z,8.30
2022-09-21T03:48:02.693Z,8.30
2022-09-21T03:50:50.610Z,8.30
2022-09-21T03:53:38.528Z,8.40
2022-09-21T03:56:26.180Z,8.40
2022-09-21T03:59:14.501Z,8.40
2022-09-21T04:02:02.893Z,8.40
2022-09-21T04:04:51.947Z,8.40
2022-09-21T04:07:39.826Z,8.40
2022-09-21T04:10:29.431Z,8.40
2022-09-21T04:13:17.525Z,8.40
2022-09-21T04:16:06.164Z,8.50
2022-09-21T04:18:54.463Z,8.40
2022-09-21T04:21:43.852Z,8.40
2022-09-21T04:24:31.903Z,8.40
2022-09-21T04:27:19.606Z,8.50
2022-09-21T04:30:08.851Z,8.50
2022-09-21T04:32:56.520Z,8.50
2022-09-21T04:35:44.386Z,8.50
2022-09-21T04:38:34.193Z,8.50
2022-09-21T04:41:21.782Z,8.50
2022-09-21T04:44:09.703Z,8.50
2022-09-21T04:46:57.628Z,8.50
2022-09-21T04:49:45.395Z,8.50
2022-09-21T04:52:33.471Z,8.50
2022-09-21T04:55:22.752Z,8.50
2022-09-21T04:58:10.670Z,8.60
2022-09-21T05:00:58.194Z,8.60
2022-09-21T05:03:45.874Z,8.60
2022-09-21T05:06:35.154Z,8.60
2022-09-21T05:09:40.479Z,8.60
2022-09-21T05:12:29.604Z,8.70
2022-09-21T05:15:18.603Z,8.70
2022-09-21T05:18:06.531Z,8.70
2022-09-21T05:20:56.078Z,8.70
2022-09-21T05:23:43.949Z,8.70
2022-09-21T05:26:31.520Z,8.70
2022-09-21T05:29:21.093Z,8.80
2022-09-21T05:32:16.119Z,8.80
2022-09-21T05:35:14.145Z,8.90
2022-09-21T05:38:08.845Z,8.90
2022-09-21T05:40:57.000Z,8.90
2022-09-21T05:43:45.626Z,8.90
2022-09-21T05:46:40.744Z,9.00
2022-09-21T05:49:40.472Z,9.00
2022-09-21T05:52:36.501Z,9.00
2022-09-21T05:55:34.371Z,9.00
2022-09-21T05:58:28.437Z,9.10
2022-09-21T06:01:27.473Z,9.20
2022-09-21T06:04:17.158Z,9.30
2022-09-21T06:07:04.906Z,9.40
2022-09-21T06:09:52.593Z,9.60
2022-09-21T06:12:40.735Z,9.80
2022-09-21T06:15:28.680Z,9.90
2022-09-21T06:18:18.136Z,9.90
2022-09-21T06:21:08.430Z,10.00
2022-09-21T06:23:56.211Z,10.10
2022-09-21T06:26:43.963Z,10.20
2022-09-21T06:29:31.449Z,10.30
2022-09-21T06:32:20.896Z,10.30
2022-09-21T06:35:09.864Z,10.40
2022-09-21T06:38:02.316Z,10.60
2022-09-21T06:40:51.005Z,10.70
2022-09-21T06:43:39.186Z,10.70
2022-09-21T06:46:26.768Z,10.70
2022-09-21T06:49:14.433Z,10.70
2022-09-21T06:52:02.642Z,10.70
2022-09-21T06:54:51.776Z,10.70
2022-09-21T06:57:40.142Z,10.80
2022-09-21T07:00:27.756Z,10.80
2022-09-21T07:03:15.575Z,10.90
2022-09-21T07:06:03.108Z,11.10
2022-09-21T07:12:03.655Z,11.00
2022-09-21T07:14:51.672Z,11.10
2022-09-21T07:17:40.717Z,11.10
2022-09-21T07:20:28.241Z,11.00
2022-09-21T07:23:18.218Z,11.00
2022-09-21T07:26:08.211Z,11.00
2022-09-21T07:28:57.691Z,11.10
2022-09-21T07:31:45.789Z,11.20
2022-09-21T07:34:37.266Z,11.20
2022-09-21T07:37:25.461Z,11.20
2022-09-21T07:40:13.131Z,11.10
2022-09-21T07:43:02.450Z,11.10
2022-09-21T07:45:56.284Z,11.20
2022-09-21T07:48:47.002Z,11.20
2022-09-21T07:51:34.882Z,11.20
2022-09-21T07:54:23.220Z,11.20
2022-09-21T07:57:28.058Z,11.30
2022-09-21T08:00:18.531Z,11.40
2022-09-21T08:03:07.858Z,11.50
2022-09-21T08:05:55.513Z,11.60
2022-09-21T08:08:43.723Z,11.70
2022-09-21T08:11:33.289Z,11.90
2022-09-21T08:14:25.853Z,12.00
2022-09-21T08:17:14.380Z,12.10
2022-09-21T08:20:04.092Z,12.10
2022-09-21T08:22:53.337Z,12.20
2022-09-21T08:25:41.217Z,12.20
2022-09-21T08:28:30.402Z,12.30
2022-09-21T08:31:19.950Z,12.40
2022-09-21T08:34:07.704Z,12.60
2022-09-21T08:36:57.161Z,12.90
2022-09-21T08:39:44.794Z,13.40
2022-09-21T08:42:41.370Z,13.80
2022-09-21T08:45:36.305Z,13.80
2022-09-21T08:48:33.136Z,13.80
2022-09-21T08:51:27.109Z,14.00
2022-09-21T08:54:22.226Z,14.40
2022-09-21T08:57:14.297Z,14.70
2022-09-21T09:00:03.294Z,14.70
2022-09-21T09:03:21.462Z,14.90
2022-09-21T09:06:25.955Z,14.80
2022-09-21T09:09:47.835Z,14.60
2022-09-21T09:12:58.656Z,14.30
2022-09-21T09:15:56.056Z,14.10
2022-09-21T09:18:49.865Z,14.00
2022-09-21T09:21:41.536Z,14.10
2022-09-21T09:24:36.115Z,14.60
2022-09-21T09:27:29.304Z,15.20
2022-09-21T09:30:20.725Z,15.70
2022-09-21T09:33:13.055Z,16.10
2022-09-21T09:36:04.547Z,16.20
2022-09-21T09:38:57.666Z,15.90
2022-09-21T09:42:09.175Z,15.80
2022-09-21T09:45:25.551Z,15.80
2022-09-21T09:48:43.276Z,16.00
2022-09-21T09:51:32.510Z,16.10
2022-09-21T09:54:22.942Z,16.10
2022-09-21T09:57:12.303Z,15.70
2022-09-21T10:00:04.147Z,15.50
2022-09-21T10:03:01.358Z,15.70
2022-09-21T10:05:49.610Z,15.70
2022-09-21T10:08:44.579Z,15.40
2022-09-21T10:11:39.725Z,15.30
2022-09-21T10:14:30.783Z,15.40
2022-09-21T10:17:19.784Z,15.60
2022-09-21T10:20:17.729Z,15.80
2022-09-21T10:23:05.783Z,16.00
2022-09-21T10:26:03.309Z,16.20
2022-09-21T10:28:59.762Z,16.30
2022-09-21T10:31:59.656Z,16.30
2022-09-21T10:35:03.943Z,16.60
2022-09-21T10:38:11.424Z,16.60
2022-09-21T10:40:59.321Z,16.70
2022-09-21T10:43:47.951Z,16.70
2022-09-21T10:46:36.923Z,16.80
2022-09-21T10:49:28.469Z,17.00
2022-09-21T10:52:16.123Z,17.00
2022-09-21T10:55:05.705Z,16.90
2022-09-21T10:57:54.324Z,16.60
2022-09-21T11:00:44.611Z,16.80
2022-09-21T11:03:44.080Z,17.20
2022-09-21T11:06:38.115Z,17.70
2022-09-21T11:09:31.124Z,18.00
2022-09-21T11:12:35.516Z,18.60
2022-09-21T11:15:35.024Z,18.60
2022-09-21T11:18:27.274Z,18.60
2022-09-21T11:21:21.241Z,18.40
2022-09-21T11:24:21.050Z,18.60
2022-09-21T11:27:14.722Z,18.80
2022-09-21T11:30:07.607Z,18.10
2022-09-21T11:33:09.799Z,17.40
2022-09-21T11:36:04.212Z,17.10
2022-09-21T11:39:02.828Z,16.30
2022-09-21T11:42:03.046Z,16.00
2022-09-21T11:44:55.959Z,16.10
2022-09-21T11:48:04.042Z,16.10
2022-09-21T11:51:01.211Z,15.70
2022-09-21T11:54:10.814Z,15.50
2022-09-21T11:57:05.092Z,15.40
2022-09-21T12:00:16.040Z,16.00
2022-09-21T12:03:36.881Z,16.90
2022-09-21T12:06:38.662Z,17.50
2022-09-21T12:09:55.176Z,17.50
2022-09-21T12:12:46.971Z,17.50
2022-09-21T12:15:41.329Z,18.00
2022-09-21T12:18:35.440Z,18.30
2022-09-21T12:21:25.864Z,18.30
2022-09-21T12:24:18.012Z,18.00
2022-09-21T12:27:12.241Z,17.60
2022-09-21T12:30:05.631Z,17.70
2022-09-21T12:33:00.216Z,18.10
2022-09-21T12:35:55.317Z,18.30
2022-09-21T12:38:50.146Z,18.10
2022-09-21T12:41:43.848Z,17.70
2022-09-21T12:44:52.351Z,17.20
2022-09-21T12:47:49.878Z,16.80
2022-09-21T12:50:42.023Z,16.40
2022-09-21T12:53:34.464Z,16.10
2022-09-21T12:56:34.031Z,16.00
2022-09-21T12:59:34.615Z,16.10
2022-09-21T13:02:30.395Z,16.10
2022-09-21T13:05:30.266Z,16.10
2022-09-21T13:08:21.522Z,16.20
2022-09-21T13:11:11.625Z,16.30
2022-09-21T13:14:02.307Z,16.30
2022-09-21T13:16:57.738Z,16.40
2022-09-21T13:19:45.577Z,16.30
2022-09-21T13:22:35.216Z,16.40
2022-09-21T13:25:28.202Z,16.40
2022-09-21T13:28:24.256Z,16.30
2022-09-21T13:31:42.593Z,16.30
2022-09-21T13:34:32.613Z,16.20
2022-09-21T13:37:32.883Z,16.00
2022-09-21T13:40:50.328Z,16.10
2022-09-21T13:44:06.457Z,16.20
2022-09-21T13:46:59.243Z,16.50
2022-09-21T13:49:54.079Z,16.60
2022-09-21T13:52:48.150Z,16.60
2022-09-21T13:55:38.982Z,16.50
2022-09-21T13:58:28.583Z,16.50
2022-09-21T14:01:45.763Z,16.30
2022-09-21T14:04:37.184Z,16.20
2022-09-21T14:07:31.749Z,16.10
2022-09-21T14:10:22.415Z,16.00
2022-09-21T14:13:31.992Z,15.90
2022-09-21T14:17:00.089Z,15.80
2022-09-21T14:20:08.133Z,15.70
2022-09-21T14:23:27.897Z,15.70
2022-09-21T14:26:34.634Z,15.90
2022-09-21T14:29:26.908Z,16.00
2022-09-21T14:32:21.204Z,16.10
2022-09-21T14:35:16.832Z,16.10
2022-09-21T14:38:10.941Z,16.20
2022-09-21T14:41:02.729Z,16.20
2022-09-21T14:43:54.002Z,16.20
2022-09-21T14:47:05.468Z,16.20
2022-09-21T14:50:15.170Z,16.10
2022-09-21T14:53:39.361Z,16.00
2022-09-21T14:56:39.100Z,15.70
2022-09-21T14:59:43.773Z,15.50
2022-09-21T15:02:35.574Z,15.50
2022-09-21T15:05:32.605Z,15.80
2022-09-21T15:09:01.337Z,15.80
2022-09-21T15:12:00.425Z,16.00
2022-09-21T15:14:56.092Z,16.60
2022-09-21T15:17:57.363Z,17.30
2022-09-21T15:21:01.410Z,18.00
2022-09-21T15:23:52.382Z,18.20
2022-09-21T15:26:40.948Z,18.00
2022-09-21T15:29:31.670Z,17.80
2022-09-21T15:32:35.763Z,17.50
2022-09-21T15:35:33.733Z,17.10
2022-09-21T15:38:29.239Z,16.60
2022-09-21T15:41:39.748Z,16.10
2022-09-21T15:44:33.806Z,15.80
2022-09-21T15:47:26.185Z,15.60
2022-09-21T15:50:15.082Z,15.40
2022-09-21T15:53:11.723Z,15.30
2022-09-21T15:56:01.630Z,15.20
2022-09-21T15:58:50.902Z,15.10
2022-09-21T16:01:42.865Z,15.00
2022-09-21T16:04:32.096Z,14.90
2022-09-21T16:07:28.064Z,14.80
2022-09-21T16:10:39.554Z,14.80
2022-09-21T16:13:44.551Z,14.70
2022-09-21T16:16:32.348Z,14.70
2022-09-21T16:19:20.244Z,14.60
2022-09-21T16:22:08.185Z,14.60
2022-09-21T16:24:57.646Z,14.60
2022-09-21T16:27:54.449Z,14.60
2022-09-21T16:30:48.281Z,14.60
2022-09-21T16:33:42.467Z,14.60
2022-09-21T16:36:42.003Z,14.60
2022-09-21T16:39:29.661Z,14.40
2022-09-21T16:42:19.350Z,14.20
2022-09-21T16:45:18.216Z,14.10
2022-09-21T16:48:07.990Z,13.90
2022-09-21T16:50:55.996Z,13.70
2022-09-21T16:53:43.827Z,13.30
2022-09-21T16:56:31.413Z,13.00
2022-09-21T16:59:21.844Z,12.70
2022-09-21T17:02:14.493Z,12.50
2022-09-21T17:05:02.964Z,12.30
2022-09-21T17:07:53.576Z,12.20
2022-09-21T17:10:45.062Z,12.10
2022-09-21T17:13:33.589Z,12.00
2022-09-21T17:16:23.201Z,11.90
2022-09-21T17:19:12.150Z,11.90
2022-09-21T17:22:00.325Z,11.80
2022-09-21T17:24:52.825Z,11.70
2022-09-21T17:27:42.445Z,11.70
2022-09-21T17:30:30.737Z,11.70
2022-09-21T17:33:19.983Z,11.70
2022-09-21T17:36:14.874Z,11.60
2022-09-21T17:39:03.778Z,11.60
2022-09-21T17:41:54.231Z,11.50
2022-09-21T17:45:02.136Z,11.50
2022-09-21T17:47:51.008Z,11.40
2022-09-21T17:50:39.277Z,11.40
2022-09-21T17:53:37.593Z,11.40
2022-09-21T17:56:39.812Z,11.30
2022-09-21T17:59:32.981Z,11.30
2022-09-21T18:02:23.810Z,11.30
2022-09-21T18:05:22.931Z,11.20
2022-09-21T18:08:11.310Z,11.10
2022-09-21T18:11:09.310Z,11.10
2022-09-21T18:14:05.687Z,10.90
2022-09-21T18:17:02.605Z,10.90
2022-09-21T18:20:18.228Z,10.80
2022-09-21T18:23:17.397Z,10.70
2022-09-21T18:26:10.230Z,10.60
2022-09-21T18:28:59.300Z,10.50
2022-09-21T18:31:55.614Z,10.40
2022-09-21T18:34:58.501Z,10.30
2022-09-21T18:37:57.921Z,10.20
2022-09-21T18:41:04.762Z,10.10
2022-09-21T18:44:05.413Z,10.00
2022-09-21T18:47:02.493Z,9.90
2022-09-21T18:49:57.948Z,9.80
2022-09-21T18:52:53.243Z,9.70
2022-09-21T18:55:41.584Z,9.70
2022-09-21T18:58:30.643Z,9.50
2022-09-21T19:01:22.270Z,9.60
2022-09-21T19:04:11.651Z,9.70
2022-09-21T19:07:04.476Z,9.80
2022-09-21T19:10:05.328Z,9.80
2022-09-21T19:13:05.902Z,9.90
2022-09-21T19:16:07.126Z,10.00
2022-09-21T19:19:04.660Z,10.00
2022-09-21T19:21:59.452Z,10.00
2022-09-21T19:24:58.486Z,10.00
2022-09-21T19:27:53.927Z,10.00
2022-09-21T19:30:42.983Z,10.10
2022-09-21T19:33:49.512Z,10.10
2022-09-21T19:36:40.183Z,10.20
2022-09-21T19:39:28.074Z,10.20
2022-09-21T19:42:29.889Z,10.20
2022-09-21T19:45:24.872Z,10.20
2022-09-21T19:48:16.178Z,10.20
2022-09-21T19:51:05.193Z,10.20
2022-09-21T19:54:24.005Z,10.20
2022-09-21T19:57:33.321Z,10.20
2022-09-21T20:00:22.836Z,10.20
2022-09-21T20:03:15.300Z,10.20
2022-09-21T20:06:07.304Z,10.20
2022-09-21T20:09:05.312Z,10.20
2022-09-21T20:12:01.287Z,10.30
2022-09-21T20:14:51.616Z,10.30
2022-09-21T20:17:45.891Z,10.30
2022-09-21T20:20:34.977Z,10.30
2022-09-21T20:23:22.893Z,10.30
2022-09-21T20:26:25.018Z,10.30
2022-09-21T20:29:13.541Z,10.30
2022-09-21T20:32:01.849Z,10.40
2022-09-21T20:34:50.320Z,10.30
2022-09-21T20:37:37.935Z,10.30
2022-09-21T20:40:26.723Z,10.30
2022-09-21T20:43:15.744Z,10.30
2022-09-21T20:46:03.656Z,10.40
2022-09-21T20:49:00.299Z,10.40
2022-09-21T20:51:49.023Z,10.40
2022-09-21T20:54:37.385Z,10.40
2022-09-21T20:57:25.593Z,10.40
2022-09-21T21:00:17.096Z,10.40
2022-09-21T21:03:05.367Z,10.40
2022-09-21T21:05:53.042Z,10.40
2022-09-21T21:08:40.854Z,10.40
2022-09-21T21:11:28.994Z,10.40
2022-09-21T21:14:19.803Z,10.40
2022-09-21T21:17:09.381Z,10.40
2022-09-21T21:19:57.135Z,10.40
2022-09-21T21:22:46.338Z,10.40
2022-09-21T21:25:34.152Z,10.40
2022-09-21T21:28:21.910Z,10.40
2022-09-21T21:31:09.743Z,10.30
2022-09-21T21:33:59.286Z,10.30
2022-09-21T21:36:47.384Z,10.30
2022-09-21T21:39:35.280Z,10.30
2022-09-21T21:42:24.862Z,10.20
2022-09-21T21:45:12.635Z,10.20
2022-09-21T21:48:02.410Z,10.10
2022-09-21T21:50:51.648Z,10.00
2022-09-21T21:53:40.614Z,9.90
2022-09-21T21:56:29.738Z,9.80
2022-09-21T21:59:18.248Z,9.70
2022-09-21T22:02:06.470Z,9.70
2022-09-21T22:04:54.454Z,9.60
2022-09-21T22:07:43.588Z,9.60
2022-09-21T22:10:31.311Z,9.60
2022-09-21T22:13:18.964Z,9.50
2022-09-21T22:16:08.357Z,9.50
2022-09-21T22:18:57.180Z,9.40
2022-09-21T22:21:51.662Z,9.30
2022-09-21T22:24:42.568Z,9.20
2022-09-21T22:27:30.248Z,9.20
2022-09-21T22:30:18.209Z,9.10
2022-09-21T22:33:05.823Z,9.10
2022-09-21T22:35:53.768Z,9.10
2022-09-21T22:38:43.103Z,9.00
2022-09-21T22:41:36.016Z,9.00
2022-09-21T22:44:24.040Z,9.00
2022-09-21T22:47:11.436Z,9.00
2022-09-21T22:49:59.186Z,8.90
2022-09-21T22:52:46.738Z,8.90
2022-09-21T22:55:34.833Z,8.80
2022-09-21T22:58:24.040Z,8.80
2022-09-21T23:01:14.079Z,8.80
2022-09-21T23:04:03.442Z,8.80
2022-09-21T23:06:51.361Z,8.80
2022-09-21T23:09:39.155Z,8.90
2022-09-21T23:12:26.924Z,9.00
2022-09-21T23:15:16.673Z,9.00
2022-09-21T23:18:04.504Z,9.00
2022-09-21T23:20:59.460Z,8.90
2022-09-21T23:23:48.439Z,8.90
2022-09-21T23:26:36.483Z,8.80
2022-09-21T23:29:24.226Z,8.70
2022-09-21T23:32:13.061Z,8.60
2022-09-21T23:35:00.884Z,8.60
2022-09-21T23:37:48.658Z,8.50
2022-09-21T23:40:36.586Z,8.40
2022-09-21T23:43:24.163Z,8.30
2022-09-21T23:46:14.422Z,8.20
2022-09-21T23:49:03.407Z,8.20
2022-09-21T23:51:51.453Z,8.10
2022-09-21T23:54:39.518Z,8.00
2022-09-21T23:57:27.129Z,7.90
